Terminal Aerodrome Forecast
Issued by NWS

Home | Current Version | Previous Version | Graphics & Text | Print | Product List | Glossary On
Versions: 1 2 3 4 5 6 7 8 9 10 11 12 13 14 15 16 17 18 19 20 21 22
000
FTUS43 KGRB 270933 AAA
TAFRHI
TAF AMD
KRHI 270933Z 2710/2806 32007KT 6SM -RA BR SCT004 OVC012
      TEMPO 2710/2712 3SM -FZRASNPL BR OVC004
     FM271200 31007KT 3SM -FZRASNPL BR OVC006
      TEMPO 2712/2714 1SM -SN BR
     FM271400 31007KT 1SM -SN BR OVC006
     FM271800 28009G16KT 3SM -RASN BR OVC008
     FM272000 26010G17KT 6SM -RA BR OVC012
     FM272200 27008KT P6SM OVC015
     FM280200 25007KT P6SM OVC025
      TEMPO 2804/2806 BKN035=

USA.gov is the U.S. government's official web portal to all federal, state and local government web resources and services.